createdAt,value
2023-01-22T00:01:57.593Z,1.99
2023-01-22T00:04:26.585Z,1.99
2023-01-22T00:06:55.579Z,1.98
2023-01-22T00:09:24.780Z,1.96
2023-01-22T00:11:54.784Z,1.99
2023-01-22T00:14:23.836Z,1.98
2023-01-22T00:16:53.517Z,1.98
2023-01-22T00:19:24.032Z,1.98
2023-01-22T00:21:53.832Z,1.98
2023-01-22T00:24:23.811Z,1.96
2023-01-22T00:26:53.535Z,1.96
2023-01-22T00:29:22.852Z,1.96
2023-01-22T00:31:52.189Z,1.95
2023-01-22T00:34:24.168Z,1.95
2023-01-22T00:36:55.283Z,1.95
2023-01-22T00:39:25.525Z,1.93
2023-01-22T00:41:54.875Z,1.93
2023-01-22T00:44:24.190Z,1.95
2023-01-22T00:46:53.637Z,1.90
2023-01-22T00:49:25.423Z,1.93
2023-01-22T00:51:56.368Z,1.90
2023-01-22T00:54:25.510Z,1.92
2023-01-22T00:56:54.960Z,1.90
2023-01-22T00:59:26.106Z,1.93
2023-01-22T01:01:57.915Z,1.90
2023-01-22T01:04:28.433Z,1.92
2023-01-22T01:06:57.493Z,1.90
2023-01-22T01:09:26.709Z,1.92
2023-01-22T01:11:56.011Z,1.89
2023-01-22T01:14:28.679Z,1.88
2023-01-22T01:16:59.155Z,1.89
2023-01-22T01:19:28.362Z,1.86
2023-01-22T01:21:57.456Z,1.89
2023-01-22T01:24:27.412Z,1.85
2023-01-22T01:26:56.648Z,1.85
2023-01-22T01:29:26.120Z,1.86
2023-01-22T01:31:57.724Z,1.85
2023-01-22T01:34:27.639Z,1.83
2023-01-22T01:36:57.140Z,1.83
2023-01-22T01:39:27.352Z,1.83
2023-01-22T01:41:59.332Z,1.82
2023-01-22T01:44:31.732Z,1.82
2023-01-22T01:47:05.397Z,1.82
2023-01-22T01:49:38.557Z,1.81
2023-01-22T01:52:11.718Z,1.81
2023-01-22T01:54:43.047Z,1.79
2023-01-22T01:57:16.736Z,1.78
2023-01-22T01:59:47.665Z,1.79
2023-01-22T02:02:19.497Z,1.78
2023-01-22T02:04:53.658Z,1.78
2023-01-22T02:07:26.915Z,1.78
2023-01-22T02:09:56.658Z,1.78
2023-01-22T02:12:26.914Z,1.77
2023-01-22T02:14:57.018Z,1.79
2023-01-22T02:17:27.274Z,1.77
2023-01-22T02:19:56.888Z,1.74
2023-01-22T02:22:30.460Z,1.74
2023-01-22T02:25:01.005Z,1.75
2023-01-22T02:27:32.160Z,1.74
2023-01-22T02:30:01.350Z,1.72
2023-01-22T02:32:31.644Z,1.74
2023-01-22T02:35:00.705Z,1.74
2023-01-22T02:37:30.571Z,1.74
2023-01-22T02:39:59.736Z,1.72
2023-01-22T02:42:30.315Z,1.72
2023-01-22T02:45:00.399Z,1.71
2023-01-22T02:47:29.908Z,1.71
2023-01-22T02:49:59.133Z,1.72
2023-01-22T02:52:29.697Z,1.70
2023-01-22T02:54:59.428Z,1.71
2023-01-22T02:57:31.082Z,1.70
2023-01-22T03:00:00.112Z,1.67
2023-01-22T03:02:30.290Z,1.70
2023-01-22T03:05:03.734Z,1.70
2023-01-22T03:07:42.161Z,1.71
2023-01-22T03:10:14.243Z,1.68
2023-01-22T03:13:03.668Z,1.70
2023-01-22T03:15:51.474Z,1.71
2023-01-22T03:18:39.648Z,1.70
2023-01-22T03:21:15.950Z,1.68
2023-01-22T03:23:46.701Z,1.70
2023-01-22T03:26:17.575Z,1.70
2023-01-22T03:28:47.144Z,1.68
2023-01-22T03:31:17.250Z,1.70
2023-01-22T03:33:46.729Z,1.70
2023-01-22T03:36:15.881Z,1.70
2023-01-22T03:38:52.655Z,1.67
2023-01-22T03:41:23.438Z,1.67
2023-01-22T03:43:54.845Z,1.70
2023-01-22T03:46:27.721Z,1.68
2023-01-22T03:49:01.947Z,1.68
2023-01-22T03:51:32.655Z,1.68
2023-01-22T03:54:03.339Z,1.67
2023-01-22T03:56:32.888Z,1.70
2023-01-22T03:59:07.759Z,1.67
2023-01-22T04:01:37.356Z,1.64
2023-01-22T04:04:06.755Z,1.64
2023-01-22T04:06:35.774Z,1.64
2023-01-22T04:09:06.606Z,1.64
2023-01-22T04:11:41.219Z,1.64
2023-01-22T04:14:11.564Z,1.62
2023-01-22T04:16:46.185Z,1.61
2023-01-22T04:19:41.831Z,1.62
2023-01-22T04:22:30.713Z,1.62
2023-01-22T04:25:00.437Z,1.61
2023-01-22T04:27:30.979Z,1.61
2023-01-22T04:30:01.435Z,1.61
2023-01-22T04:32:32.145Z,1.61
2023-01-22T04:35:34.903Z,1.60
2023-01-22T04:38:07.775Z,1.61
2023-01-22T04:40:37.201Z,1.62
2023-01-22T04:43:08.427Z,1.58
2023-01-22T04:45:38.958Z,1.60
2023-01-22T04:48:10.578Z,1.58
2023-01-22T04:50:42.682Z,1.57
2023-01-22T04:53:15.410Z,1.60
2023-01-22T04:55:45.423Z,1.57
2023-01-22T04:58:15.650Z,1.57
2023-01-22T05:00:47.214Z,1.55
2023-01-22T05:03:17.804Z,1.57
2023-01-22T05:05:46.849Z,1.57
2023-01-22T05:08:16.417Z,1.60
2023-01-22T05:10:47.161Z,1.55
2023-01-22T05:13:25.887Z,1.57
2023-01-22T05:16:00.619Z,1.57
2023-01-22T05:18:33.779Z,1.57
2023-01-22T05:21:05.840Z,1.55
2023-01-22T05:23:38.543Z,1.57
2023-01-22T05:26:09.061Z,1.55
2023-01-22T05:28:44.697Z,1.54
2023-01-22T05:31:47.573Z,1.53
2023-01-22T05:34:50.164Z,1.57
2023-01-22T05:37:20.106Z,1.54
2023-01-22T05:39:52.863Z,1.53
2023-01-22T05:42:25.561Z,1.54
2023-01-22T05:45:04.180Z,1.55
2023-01-22T05:47:35.139Z,1.53
2023-01-22T05:50:14.354Z,1.54
2023-01-22T05:52:43.955Z,1.54
2023-01-22T05:55:16.676Z,1.55
2023-01-22T05:57:50.359Z,1.55
2023-01-22T06:00:23.752Z,1.55
2023-01-22T06:03:01.128Z,1.53
2023-01-22T06:05:37.260Z,1.54
2023-01-22T06:08:09.084Z,1.54
2023-01-22T06:10:44.735Z,1.53
2023-01-22T06:13:15.701Z,1.55
2023-01-22T06:15:45.831Z,1.53
2023-01-22T06:18:31.568Z,1.54
2023-01-22T06:21:08.036Z,1.55
2023-01-22T06:23:37.972Z,1.53
2023-01-22T06:26:10.354Z,1.54
2023-01-22T06:28:40.834Z,1.54
2023-01-22T06:31:10.251Z,1.57
2023-01-22T06:33:40.967Z,1.53
2023-01-22T06:36:11.403Z,1.54
2023-01-22T06:38:40.828Z,1.50
2023-01-22T06:41:11.172Z,1.53
2023-01-22T06:43:40.328Z,1.51
2023-01-22T06:46:10.584Z,1.55
2023-01-22T06:49:09.525Z,1.54
2023-01-22T06:51:43.551Z,1.54
2023-01-22T06:54:13.382Z,1.55
2023-01-22T06:56:43.062Z,1.55
2023-01-22T06:59:12.925Z,1.57
2023-01-22T07:01:42.368Z,1.55
2023-01-22T07:04:11.458Z,1.55
2023-01-22T07:06:40.877Z,1.57
2023-01-22T07:09:13.228Z,1.57
2023-01-22T07:11:45.954Z,1.57
2023-01-22T07:14:28.890Z,1.57
2023-01-22T07:17:08.410Z,1.60
2023-01-22T07:19:38.350Z,1.57
2023-01-22T07:22:08.438Z,1.58
2023-01-22T07:24:38.770Z,1.60
2023-01-22T07:27:09.283Z,1.60
2023-01-22T07:29:38.980Z,1.61
2023-01-22T07:32:08.909Z,1.60
2023-01-22T07:34:38.526Z,1.62
2023-01-22T07:37:08.584Z,1.61
2023-01-22T07:39:40.871Z,1.64
2023-01-22T07:42:13.337Z,1.67
2023-01-22T07:44:46.647Z,1.64
2023-01-22T07:47:16.841Z,1.64
2023-01-22T07:49:50.004Z,1.65
2023-01-22T07:52:22.138Z,1.64
2023-01-22T07:54:51.979Z,1.71
2023-01-22T07:57:32.944Z,1.70
2023-01-22T08:00:04.903Z,1.72
2023-01-22T08:02:42.254Z,1.72
2023-01-22T08:05:14.123Z,1.74
2023-01-22T08:07:43.168Z,1.72
2023-01-22T08:10:14.618Z,1.75
2023-01-22T08:12:46.322Z,1.77
2023-01-22T08:15:16.326Z,1.78
2023-01-22T08:17:48.097Z,1.78
2023-01-22T08:20:18.793Z,1.79
2023-01-22T08:22:48.754Z,1.82
2023-01-22T08:25:18.436Z,1.85
2023-01-22T08:27:49.984Z,1.86
2023-01-22T08:30:20.202Z,1.89
2023-01-22T08:32:51.047Z,1.92
2023-01-22T08:35:20.289Z,1.95
2023-01-22T08:37:49.470Z,1.95
2023-01-22T08:40:19.534Z,1.96
2023-01-22T08:42:55.131Z,1.98
2023-01-22T08:45:27.540Z,1.93
2023-01-22T08:47:59.369Z,1.95
2023-01-22T08:50:30.969Z,1.98
2023-01-22T08:53:00.610Z,1.99
2023-01-22T08:55:31.476Z,1.99
2023-01-22T08:58:00.411Z,2.00
2023-01-22T09:00:30.671Z,2.05
2023-01-22T09:03:00.379Z,2.06
2023-01-22T09:05:30.099Z,2.05
2023-01-22T09:07:59.727Z,2.06
2023-01-22T09:10:33.058Z,2.05
2023-01-22T09:13:03.699Z,2.06
2023-01-22T09:15:33.818Z,2.02
2023-01-22T09:18:06.502Z,2.02
2023-01-22T09:20:35.961Z,2.00
2023-01-22T09:23:09.979Z,2.00
2023-01-22T09:25:38.670Z,2.03
2023-01-22T09:28:11.606Z,2.03
2023-01-22T09:30:42.796Z,2.03
2023-01-22T09:33:12.721Z,2.06
2023-01-22T09:35:42.505Z,2.05
2023-01-22T09:38:14.119Z,2.05
2023-01-22T09:40:48.524Z,2.07
2023-01-22T09:43:23.793Z,2.06
2023-01-22T09:45:56.251Z,2.06
2023-01-22T09:48:38.051Z,2.07
2023-01-22T09:51:07.556Z,2.09
2023-01-22T09:53:37.170Z,2.07
2023-01-22T09:56:14.849Z,2.10
2023-01-22T09:58:49.384Z,2.12
2023-01-22T10:01:22.305Z,2.10
2023-01-22T10:03:55.202Z,2.14
2023-01-22T10:06:24.949Z,2.16
2023-01-22T10:09:06.998Z,2.14
2023-01-22T10:11:40.907Z,2.16
2023-01-22T10:14:17.299Z,2.17
2023-01-22T10:16:49.183Z,2.16
2023-01-22T10:19:23.531Z,2.16
2023-01-22T10:22:05.315Z,2.20
2023-01-22T10:24:34.787Z,2.18
2023-01-22T10:27:13.640Z,2.16
2023-01-22T10:29:46.577Z,2.20
2023-01-22T10:32:28.212Z,2.17
2023-01-22T10:35:09.653Z,2.20
2023-01-22T10:37:47.608Z,2.23
2023-01-22T10:40:25.123Z,2.24
2023-01-22T10:43:11.204Z,2.26
2023-01-22T10:45:50.435Z,2.24
2023-01-22T10:48:20.946Z,2.29
2023-01-22T10:51:03.641Z,2.29
2023-01-22T10:53:35.322Z,2.32
2023-01-22T10:56:12.577Z,2.32
2023-01-22T10:58:48.490Z,2.32
2023-01-22T11:01:35.289Z,2.34
2023-01-22T11:04:20.679Z,2.38
2023-01-22T11:06:54.158Z,2.40
2023-01-22T11:09:28.065Z,2.41
2023-01-22T11:12:08.354Z,2.43
2023-01-22T11:14:39.167Z,2.44
2023-01-22T11:17:16.291Z,2.44
2023-01-22T11:19:54.250Z,2.45
2023-01-22T11:22:34.891Z,2.44
2023-01-22T11:25:08.100Z,2.48
2023-01-22T11:27:58.524Z,2.45
2023-01-22T11:30:49.785Z,2.45
2023-01-22T11:33:36.071Z,2.44
2023-01-22T11:36:17.762Z,2.44
2023-01-22T11:38:53.768Z,2.45
2023-01-22T11:41:47.063Z,2.38
2023-01-22T11:44:50.506Z,2.41
2023-01-22T11:47:43.395Z,2.38
2023-01-22T11:50:25.680Z,2.43
2023-01-22T11:53:14.057Z,2.40
2023-01-22T11:56:03.521Z,2.37
2023-01-22T11:58:45.671Z,2.33
2023-01-22T12:01:25.195Z,2.34
2023-01-22T12:04:25.762Z,2.32
2023-01-22T12:07:25.097Z,2.33
2023-01-22T12:10:08.452Z,2.33
2023-01-22T12:12:46.475Z,2.34
2023-01-22T12:15:41.912Z,2.34
2023-01-22T12:18:41.869Z,2.27
2023-01-22T12:21:21.444Z,2.27
2023-01-22T12:23:57.323Z,2.24
2023-01-22T12:26:31.561Z,2.23
2023-01-22T12:29:07.367Z,2.23
2023-01-22T12:31:47.983Z,2.26
2023-01-22T12:34:25.632Z,2.20
2023-01-22T12:36:56.165Z,2.20
2023-01-22T12:39:30.330Z,2.18
2023-01-22T12:42:08.799Z,2.18
2023-01-22T12:44:55.303Z,2.17
2023-01-22T12:47:36.331Z,2.14
2023-01-22T12:50:19.032Z,2.14
2023-01-22T12:52:59.658Z,2.16
2023-01-22T12:55:35.383Z,2.12
2023-01-22T12:58:23.359Z,2.12
2023-01-22T13:01:04.252Z,2.13
2023-01-22T13:03:34.403Z,2.10
2023-01-22T13:06:21.062Z,2.07
2023-01-22T13:08:50.741Z,2.12
2023-01-22T13:11:31.627Z,2.09
2023-01-22T13:14:19.331Z,2.07
2023-01-22T13:16:54.618Z,2.07
2023-01-22T13:19:26.556Z,2.06
2023-01-22T13:21:59.871Z,2.05
2023-01-22T13:24:32.421Z,2.05
2023-01-22T13:27:04.290Z,2.02
2023-01-22T13:29:36.978Z,2.03
2023-01-22T13:32:16.440Z,2.02
2023-01-22T13:34:48.943Z,2.00
2023-01-22T13:37:27.987Z,1.99
2023-01-22T13:39:57.741Z,1.99
2023-01-22T13:42:30.511Z,1.98
2023-01-22T13:45:00.254Z,1.98
2023-01-22T13:47:35.589Z,1.99
2023-01-22T13:50:17.751Z,1.96
2023-01-22T13:52:47.613Z,1.98
2023-01-22T13:55:18.760Z,1.98
2023-01-22T13:57:50.814Z,1.99
2023-01-22T14:00:26.376Z,1.99
2023-01-22T14:02:56.154Z,1.99
2023-01-22T14:05:27.425Z,1.95
2023-01-22T14:08:06.656Z,1.98
2023-01-22T14:10:37.506Z,1.96
2023-01-22T14:13:09.933Z,1.93
2023-01-22T14:15:40.479Z,1.93
2023-01-22T14:18:13.281Z,1.95
2023-01-22T14:20:45.350Z,1.92
2023-01-22T14:23:15.160Z,1.93
2023-01-22T14:25:47.238Z,1.96
2023-01-22T14:28:17.091Z,1.92
2023-01-22T14:30:46.756Z,1.92
2023-01-22T14:33:18.805Z,1.92
2023-01-22T14:35:48.098Z,1.90
2023-01-22T14:38:18.438Z,1.90
2023-01-22T14:40:47.584Z,1.89
2023-01-22T14:43:16.642Z,1.90
2023-01-22T14:45:46.435Z,1.90
2023-01-22T14:48:16.966Z,1.89
2023-01-22T14:50:46.944Z,1.88
2023-01-22T14:53:17.283Z,1.88
2023-01-22T14:55:46.728Z,1.85
2023-01-22T14:58:16.007Z,1.83
2023-01-22T15:00:45.207Z,1.83
2023-01-22T15:03:14.520Z,1.85
2023-01-22T15:05:44.230Z,1.82
2023-01-22T15:08:13.831Z,1.82
2023-01-22T15:10:42.938Z,1.81
2023-01-22T15:13:12.015Z,1.79
2023-01-22T15:15:41.529Z,1.81
2023-01-22T15:18:10.904Z,1.79
2023-01-22T15:20:39.939Z,1.77
2023-01-22T15:23:09.811Z,1.77
2023-01-22T15:25:38.914Z,1.77
2023-01-22T15:28:08.103Z,1.77
2023-01-22T15:30:37.225Z,1.72
2023-01-22T15:33:06.228Z,1.72
2023-01-22T15:35:35.230Z,1.71
2023-01-22T15:38:05.711Z,1.75
2023-01-22T15:40:37.175Z,1.72
2023-01-22T15:43:06.825Z,1.71
2023-01-22T15:45:36.073Z,1.72
2023-01-22T15:48:08.409Z,1.74
2023-01-22T15:50:37.323Z,1.74
2023-01-22T15:53:06.320Z,1.72
2023-01-22T15:55:35.332Z,1.74
2023-01-22T15:58:05.542Z,1.71
2023-01-22T16:00:34.580Z,1.71
2023-01-22T16:03:05.290Z,1.72
2023-01-22T16:05:34.499Z,1.72
2023-01-22T16:08:04.535Z,1.72
2023-01-22T16:10:33.589Z,1.71
2023-01-22T16:13:03.785Z,1.70
2023-01-22T16:15:32.734Z,1.70
2023-01-22T16:18:01.819Z,1.72
2023-01-22T16:20:31.735Z,1.71
2023-01-22T16:23:00.744Z,1.71
2023-01-22T16:25:29.764Z,1.72
2023-01-22T16:27:59.005Z,1.68
2023-01-22T16:30:28.265Z,1.71
2023-01-22T16:32:57.725Z,1.70
2023-01-22T16:35:26.835Z,1.68
2023-01-22T16:37:55.946Z,1.68
2023-01-22T16:40:25.390Z,1.67
2023-01-22T16:43:00.692Z,1.62
2023-01-22T16:45:30.177Z,1.64
2023-01-22T16:47:59.257Z,1.61
2023-01-22T16:50:28.579Z,1.61
2023-01-22T16:52:57.667Z,1.61
2023-01-22T16:55:26.581Z,1.61
2023-01-22T16:57:58.002Z,1.61
2023-01-22T17:00:27.205Z,1.58
2023-01-22T17:02:56.229Z,1.60
2023-01-22T17:05:26.054Z,1.57
2023-01-22T17:07:55.249Z,1.55
2023-01-22T17:10:24.146Z,1.53
2023-01-22T17:12:53.130Z,1.54
2023-01-22T17:15:22.303Z,1.54
2023-01-22T17:17:51.426Z,1.51
2023-01-22T17:20:20.852Z,1.50
2023-01-22T17:22:50.368Z,1.49
2023-01-22T17:25:19.429Z,1.51
2023-01-22T17:27:48.399Z,1.49
2023-01-22T17:30:18.171Z,1.50
2023-01-22T17:32:48.658Z,1.50
2023-01-22T17:35:18.793Z,1.49
2023-01-22T17:37:48.272Z,1.47
2023-01-22T17:40:17.669Z,1.49
2023-01-22T17:42:46.859Z,1.47
2023-01-22T17:45:16.026Z,1.49
2023-01-22T17:47:45.173Z,1.49
2023-01-22T17:50:14.679Z,1.50
2023-01-22T17:52:43.689Z,1.49
2023-01-22T17:55:13.231Z,1.46
2023-01-22T17:57:42.187Z,1.47
2023-01-22T18:00:17.155Z,1.47
2023-01-22T18:02:46.634Z,1.49
2023-01-22T18:05:16.053Z,1.47
2023-01-22T18:07:50.947Z,1.49
2023-01-22T18:10:21.533Z,1.49
2023-01-22T18:13:06.137Z,1.47
2023-01-22T18:15:47.378Z,1.46
2023-01-22T18:18:18.548Z,1.47
2023-01-22T18:20:49.091Z,1.46
2023-01-22T18:23:18.598Z,1.44
2023-01-22T18:25:50.232Z,1.46
2023-01-22T18:28:21.046Z,1.46
2023-01-22T18:30:51.806Z,1.47
2023-01-22T18:33:22.381Z,1.46
2023-01-22T18:35:53.450Z,1.46
2023-01-22T18:38:26.057Z,1.44
2023-01-22T18:40:56.247Z,1.44
2023-01-22T18:43:26.163Z,1.47
2023-01-22T18:46:05.508Z,1.44
2023-01-22T18:48:38.699Z,1.44
2023-01-22T18:51:10.390Z,1.42
2023-01-22T18:53:41.918Z,1.40
2023-01-22T18:56:13.579Z,1.43
2023-01-22T18:58:44.263Z,1.40
2023-01-22T19:01:17.979Z,1.42
2023-01-22T19:03:59.844Z,1.40
2023-01-22T19:06:32.968Z,1.43
2023-01-22T19:09:07.500Z,1.40
2023-01-22T19:11:40.668Z,1.43
2023-01-22T19:14:13.304Z,1.40
2023-01-22T19:16:44.235Z,1.43
2023-01-22T19:19:14.492Z,1.40
2023-01-22T19:21:47.383Z,1.44
2023-01-22T19:24:21.842Z,1.46
2023-01-22T19:26:59.133Z,1.46
2023-01-22T19:29:28.906Z,1.44
2023-01-22T19:31:59.599Z,1.43
2023-01-22T19:34:29.851Z,1.44
2023-01-22T19:37:02.302Z,1.44
2023-01-22T19:39:33.830Z,1.43
2023-01-22T19:42:06.418Z,1.42
2023-01-22T19:44:35.734Z,1.44
2023-01-22T19:47:08.342Z,1.42
2023-01-22T19:50:05.820Z,1.47
2023-01-22T19:52:35.639Z,1.44
2023-01-22T19:55:07.939Z,1.44
2023-01-22T19:57:39.307Z,1.43
2023-01-22T20:00:12.243Z,1.44
2023-01-22T20:02:42.249Z,1.44
2023-01-22T20:05:11.501Z,1.44
2023-01-22T20:07:41.978Z,1.43
2023-01-22T20:10:13.641Z,1.47
2023-01-22T20:12:43.499Z,1.49
2023-01-22T20:15:15.475Z,1.46
2023-01-22T20:17:45.752Z,1.44
2023-01-22T20:20:15.769Z,1.46
2023-01-22T20:22:45.820Z,1.46
2023-01-22T20:25:16.311Z,1.49
2023-01-22T20:27:45.413Z,1.49
2023-01-22T20:30:15.222Z,1.47
2023-01-22T20:32:52.032Z,1.47
2023-01-22T20:35:21.385Z,1.47
2023-01-22T20:37:50.819Z,1.47
2023-01-22T20:40:20.191Z,1.44
2023-01-22T20:42:51.879Z,1.44
2023-01-22T20:45:21.275Z,1.46
2023-01-22T20:47:50.804Z,1.42
2023-01-22T20:50:20.458Z,1.44
2023-01-22T20:52:50.520Z,1.42
2023-01-22T20:55:20.810Z,1.43
2023-01-22T20:57:50.515Z,1.40
2023-01-22T21:00:21.116Z,1.40
2023-01-22T21:03:01.380Z,1.42
2023-01-22T21:05:32.794Z,1.42
2023-01-22T21:08:02.054Z,1.43
2023-01-22T21:10:37.878Z,1.40
2023-01-22T21:13:07.146Z,1.42
2023-01-22T21:15:36.265Z,1.43
2023-01-22T21:18:06.429Z,1.43
2023-01-22T21:20:37.350Z,1.43
2023-01-22T21:23:06.761Z,1.43
2023-01-22T21:25:36.767Z,1.44
2023-01-22T21:28:07.380Z,1.42
2023-01-22T21:30:37.042Z,1.44
2023-01-22T21:33:06.340Z,1.46
2023-01-22T21:35:35.407Z,1.44
2023-01-22T21:38:05.179Z,1.47
2023-01-22T21:40:34.131Z,1.44
2023-01-22T21:43:21.401Z,1.44
2023-01-22T21:46:08.802Z,1.44
2023-01-22T21:48:38.159Z,1.46
2023-01-22T21:51:07.562Z,1.46
2023-01-22T21:53:37.579Z,1.46
2023-01-22T21:56:08.495Z,1.47
2023-01-22T21:58:41.914Z,1.46
2023-01-22T22:01:13.904Z,1.46
2023-01-22T22:03:43.861Z,1.46
2023-01-22T22:06:13.797Z,1.44
2023-01-22T22:08:43.959Z,1.47
2023-01-22T22:11:14.020Z,1.46
2023-01-22T22:13:43.325Z,1.44
2023-01-22T22:16:12.951Z,1.46
2023-01-22T22:18:42.223Z,1.44
2023-01-22T22:21:11.862Z,1.46
2023-01-22T22:23:41.038Z,1.44
2023-01-22T22:26:11.769Z,1.47
2023-01-22T22:28:40.834Z,1.46
2023-01-22T22:31:12.746Z,1.42
2023-01-22T22:33:43.163Z,1.47
2023-01-22T22:36:14.134Z,1.46
2023-01-22T22:38:43.927Z,1.46
2023-01-22T22:41:16.187Z,1.47
2023-01-22T22:43:50.322Z,1.44
2023-01-22T22:46:24.324Z,1.46
2023-01-22T22:48:56.963Z,1.44
2023-01-22T22:51:28.669Z,1.46
2023-01-22T22:54:02.230Z,1.46
2023-01-22T22:56:32.911Z,1.44
2023-01-22T22:59:07.422Z,1.46
2023-01-22T23:01:37.604Z,1.46
2023-01-22T23:04:11.648Z,1.47
2023-01-22T23:06:42.151Z,1.46
2023-01-22T23:09:12.684Z,1.49
2023-01-22T23:11:41.688Z,1.46
2023-01-22T23:14:11.224Z,1.46
2023-01-22T23:16:42.920Z,1.46
2023-01-22T23:19:16.885Z,1.47
2023-01-22T23:21:49.278Z,1.44
2023-01-22T23:24:19.309Z,1.42
2023-01-22T23:26:49.466Z,1.44
2023-01-22T23:29:21.913Z,1.43
2023-01-22T23:31:52.496Z,1.44
2023-01-22T23:34:30.002Z,1.43
2023-01-22T23:37:01.248Z,1.43
2023-01-22T23:39:30.376Z,1.43
2023-01-22T23:41:59.705Z,1.46
2023-01-22T23:44:29.599Z,1.43
2023-01-22T23:46:58.969Z,1.42
2023-01-22T23:49:30.573Z,1.44
2023-01-22T23:52:00.914Z,1.43
2023-01-22T23:54:32.368Z,1.43
2023-01-22T23:57:04.129Z,1.44
2023-01-22T23:59:33.367Z,1.42
